createdAt,value
2023-02-04T00:04:18.325Z,100310.28
2023-02-04T00:09:20.056Z,100322.44
2023-02-04T00:14:21.712Z,100341.44
2023-02-04T00:19:23.442Z,100350.91
2023-02-04T00:24:25.278Z,100363.03
2023-02-04T00:29:26.994Z,100385.47
2023-02-04T00:34:28.688Z,100400.16
2023-02-04T00:39:30.355Z,100445.97
2023-02-04T00:44:32.205Z,100462.31
2023-02-04T00:49:34.995Z,100457.81
2023-02-04T00:54:36.709Z,100479.41
2023-02-04T00:59:38.507Z,100492.34
2023-02-04T01:04:40.211Z,100532.94
2023-02-04T01:09:42.064Z,100533.75
2023-02-04T01:14:43.771Z,100554.59
2023-02-04T01:19:45.824Z,100562.31
2023-02-04T01:24:48.990Z,100571.94
2023-02-04T01:30:10.660Z,100595.28
2023-02-04T01:35:12.725Z,100602.16
2023-02-04T01:40:14.813Z,100608.19
2023-02-04T01:45:16.604Z,100649.59
2023-02-04T01:50:18.650Z,100658.97
2023-02-04T01:55:24.032Z,100677.00
2023-02-04T02:00:31.999Z,100696.88
2023-02-04T02:05:41.429Z,100703.03
2023-02-04T02:10:45.739Z,100714.91
2023-02-04T02:15:48.090Z,100726.25
2023-02-04T02:20:50.072Z,100759.09
2023-02-04T02:25:52.146Z,100759.28
2023-02-04T02:30:53.983Z,100779.97
2023-02-04T02:35:55.834Z,100792.03
2023-02-04T02:41:00.039Z,100823.06
2023-02-04T02:46:02.179Z,100833.22
2023-02-04T02:51:04.323Z,100838.13
2023-02-04T02:56:06.667Z,100858.69
2023-02-04T03:01:14.525Z,100866.38
2023-02-04T03:06:20.561Z,100884.28
2023-02-04T03:11:26.198Z,100896.47
2023-02-04T03:16:30.416Z,100907.63
2023-02-04T03:21:32.488Z,100914.59
2023-02-04T03:26:34.339Z,100934.72
2023-02-04T03:31:37.911Z,100946.44
2023-02-04T03:36:39.589Z,100960.88
2023-02-04T03:41:41.279Z,100986.78
2023-02-04T03:46:43.057Z,101003.88
2023-02-04T03:51:44.757Z,101032.22
2023-02-04T03:56:46.640Z,101055.56
2023-02-04T04:01:48.349Z,101083.72
2023-02-04T04:06:50.087Z,101099.59
2023-02-04T04:11:51.790Z,101121.59
2023-02-04T04:16:53.463Z,101136.78
2023-02-04T04:21:55.176Z,101156.63
2023-02-04T04:26:57.000Z,101160.94
2023-02-04T04:31:58.712Z,101171.31
2023-02-04T04:37:00.500Z,101174.84
2023-02-04T04:42:02.277Z,101190.63
2023-02-04T04:47:04.015Z,101210.97
2023-02-04T04:52:05.810Z,101212.88
2023-02-04T04:57:07.495Z,101241.44
2023-02-04T05:02:09.176Z,101251.09
2023-02-04T05:07:10.854Z,101257.13
2023-02-04T05:12:12.487Z,101277.91
2023-02-04T05:17:14.368Z,101278.69
2023-02-04T05:22:16.146Z,101285.50
2023-02-04T05:27:17.844Z,101280.78
2023-02-04T05:32:19.592Z,101306.81
2023-02-04T05:37:21.359Z,101320.94
2023-02-04T05:42:23.071Z,101336.66
2023-02-04T05:47:24.968Z,101343.56
2023-02-04T05:52:26.707Z,101358.94
2023-02-04T05:57:28.460Z,101361.19
2023-02-04T06:02:30.211Z,101380.75
2023-02-04T06:07:31.936Z,101385.09
2023-02-04T06:12:33.691Z,101390.72
2023-02-04T06:17:35.530Z,101412.88
2023-02-04T06:22:37.226Z,101434.53
2023-02-04T06:27:59.001Z,101450.53
2023-02-04T06:33:00.754Z,101456.53
2023-02-04T06:38:02.503Z,101466.16
2023-02-04T06:43:04.630Z,101487.19
2023-02-04T06:48:06.443Z,101496.66
2023-02-04T06:53:08.161Z,101507.16
2023-02-04T06:58:09.862Z,101508.03
2023-02-04T07:03:11.588Z,101528.94
2023-02-04T07:08:13.417Z,101547.94
2023-02-04T07:13:15.256Z,101544.69
2023-02-04T07:18:18.060Z,101549.63
2023-02-04T07:23:19.791Z,101549.31
2023-02-04T07:28:22.223Z,101555.69
2023-02-04T07:33:24.014Z,101562.22
2023-02-04T07:38:25.683Z,101562.84
2023-02-04T07:43:28.682Z,101572.41
2023-02-04T07:48:30.565Z,101584.94
2023-02-04T07:53:32.294Z,101600.28
2023-02-04T07:58:34.006Z,101604.00
2023-02-04T08:03:37.098Z,101610.25
2023-02-04T08:08:38.943Z,101620.75
2023-02-04T08:13:40.683Z,101627.97
2023-02-04T08:18:42.458Z,101645.25
2023-02-04T08:23:44.120Z,101641.00
2023-02-04T08:28:46.001Z,101655.94
2023-02-04T08:33:47.752Z,101669.91
2023-02-04T08:38:49.544Z,101678.44
2023-02-04T08:43:51.369Z,101687.19
2023-02-04T08:48:53.078Z,101700.38
2023-02-04T08:53:54.724Z,101702.53
2023-02-04T08:58:56.431Z,101709.34
2023-02-04T09:03:58.188Z,101715.34
2023-02-04T09:08:59.869Z,101713.25
2023-02-04T09:14:01.572Z,101728.09
2023-02-04T09:19:03.493Z,101732.88
2023-02-04T09:24:05.163Z,101732.81
2023-02-04T09:29:06.840Z,101741.22
2023-02-04T09:34:08.645Z,101749.03
2023-02-04T09:39:10.426Z,101765.41
2023-02-04T09:44:17.675Z,101764.84
2023-02-04T09:49:19.478Z,101766.72
2023-02-04T09:54:23.127Z,101781.75
2023-02-04T09:59:28.803Z,101794.22
2023-02-04T10:04:30.798Z,101793.84
2023-02-04T10:09:32.514Z,101792.41
2023-02-04T10:14:34.446Z,101798.13
2023-02-04T10:19:36.256Z,101806.53
2023-02-04T10:24:38.602Z,101811.72
2023-02-04T10:29:42.245Z,101812.06
2023-02-04T10:34:43.960Z,101814.41
2023-02-04T10:39:46.375Z,101806.38
2023-02-04T10:44:48.613Z,101806.25
2023-02-04T10:50:02.954Z,101811.50
2023-02-04T10:55:08.089Z,101813.22
2023-02-04T11:00:28.161Z,101818.91
2023-02-04T11:05:32.812Z,101809.88
2023-02-04T11:10:35.090Z,101811.88
2023-02-04T11:15:50.510Z,101821.16
2023-02-04T11:20:55.696Z,101827.22
2023-02-04T11:26:08.536Z,101832.50
2023-02-04T11:31:22.866Z,101828.19
2023-02-04T11:36:24.610Z,101831.34
2023-02-04T11:41:30.818Z,101830.44
2023-02-04T11:46:32.557Z,101839.09
2023-02-04T11:51:35.085Z,101842.81
2023-02-04T11:56:36.763Z,101852.13
2023-02-04T12:01:38.994Z,101849.25
2023-02-04T12:06:40.622Z,101850.56
2023-02-04T12:11:55.829Z,101858.69
2023-02-04T12:16:57.616Z,101862.63
2023-02-04T12:21:59.344Z,101866.81
2023-02-04T12:27:01.059Z,101870.91
2023-02-04T12:32:02.906Z,101874.41
2023-02-04T12:37:04.727Z,101873.31
2023-02-04T12:42:06.435Z,101867.25
2023-02-04T12:47:08.086Z,101864.38
2023-02-04T12:52:09.835Z,101857.72
2023-02-04T12:57:11.846Z,101854.50
2023-02-04T13:02:13.613Z,101873.94
2023-02-04T13:07:15.476Z,101871.69
2023-02-04T13:12:17.377Z,101879.81
2023-02-04T13:17:19.203Z,101878.63
2023-02-04T13:22:20.854Z,101878.50
2023-02-04T13:27:22.554Z,101876.88
2023-02-04T13:32:24.241Z,101879.97
2023-02-04T13:37:26.035Z,101886.63
2023-02-04T13:42:27.897Z,101891.69
2023-02-04T13:47:29.570Z,101888.78
2023-02-04T13:52:31.370Z,101901.88
2023-02-04T13:57:33.216Z,101891.78
2023-02-04T14:02:34.925Z,101902.72
2023-02-04T14:07:36.693Z,101898.69
2023-02-04T14:12:38.323Z,101901.22
2023-02-04T14:17:39.964Z,101898.91
2023-02-04T14:22:41.706Z,101904.78
2023-02-04T14:27:43.421Z,101908.34
2023-02-04T14:32:45.153Z,101912.66
2023-02-04T14:37:47.076Z,101910.34
2023-02-04T14:42:48.776Z,101907.50
2023-02-04T14:47:52.649Z,101907.34
2023-02-04T14:52:56.753Z,101899.25
2023-02-04T14:57:58.395Z,101903.16
2023-02-04T15:03:00.047Z,101897.13
2023-02-04T15:08:01.747Z,101905.78
2023-02-04T15:13:03.534Z,101906.09
2023-02-04T15:18:05.357Z,101898.06
2023-02-04T15:23:07.158Z,101893.13
2023-02-04T15:28:11.665Z,101898.78
2023-02-04T15:33:13.965Z,101899.50
2023-02-04T15:38:15.606Z,101910.47
2023-02-04T15:43:17.363Z,101917.47
2023-02-04T15:48:20.133Z,101906.41
2023-02-04T15:53:21.989Z,101913.88
2023-02-04T15:58:24.841Z,101923.09
2023-02-04T16:03:26.645Z,101929.25
2023-02-04T16:08:28.330Z,101937.63
2023-02-04T16:13:29.982Z,101939.38
2023-02-04T16:18:31.648Z,101944.44
2023-02-04T16:23:33.352Z,101940.34
2023-02-04T16:28:35.101Z,101956.00
2023-02-04T16:33:36.878Z,101950.97
2023-02-04T16:38:44.963Z,101962.97
2023-02-04T16:43:46.707Z,101970.50
2023-02-04T16:48:48.336Z,101963.72
2023-02-04T16:53:50.446Z,101975.25
2023-02-04T16:58:52.185Z,101981.66
2023-02-04T17:03:58.146Z,101986.38
2023-02-04T17:08:59.816Z,101985.44
2023-02-04T17:14:04.165Z,101984.56
2023-02-04T17:19:05.793Z,101992.41
2023-02-04T17:24:08.428Z,102001.63
2023-02-04T17:29:13.299Z,102005.03
2023-02-04T17:34:14.981Z,102009.78
2023-02-04T17:39:16.621Z,102006.56
2023-02-04T17:44:20.031Z,102002.72
2023-02-04T17:49:21.743Z,102001.59
2023-02-04T17:54:23.820Z,102006.69
2023-02-04T17:59:26.181Z,102006.00
2023-02-04T18:04:28.289Z,102002.25
2023-02-04T18:09:30.369Z,102004.97
2023-02-04T18:14:32.761Z,102008.75
2023-02-04T18:19:39.574Z,102015.94
2023-02-04T18:24:44.366Z,102018.22
2023-02-04T18:29:50.432Z,102018.94
2023-02-04T18:34:57.694Z,102007.19
2023-02-04T18:40:08.680Z,102022.44
2023-02-04T18:45:26.929Z,102015.50
2023-02-04T18:50:33.989Z,102009.19
2023-02-04T18:55:37.363Z,102012.69
2023-02-04T19:00:39.286Z,102003.38
2023-02-04T19:05:49.221Z,102003.38
2023-02-04T19:10:53.104Z,101994.69
2023-02-04T19:15:58.190Z,102013.72
2023-02-04T19:21:28.741Z,102019.81
2023-02-04T19:26:33.755Z,102026.69
2023-02-04T19:31:37.317Z,102025.09
2023-02-04T19:36:40.017Z,102028.59
2023-02-04T19:41:48.159Z,102033.97
2023-02-04T19:46:49.837Z,102038.75
2023-02-04T19:51:54.258Z,102041.50
2023-02-04T19:56:56.118Z,102043.19
2023-02-04T20:02:07.176Z,102050.94
2023-02-04T20:07:29.215Z,102065.09
2023-02-04T20:12:32.676Z,102063.69
2023-02-04T20:17:46.833Z,102069.28
2023-02-04T20:22:52.764Z,102082.59
2023-02-04T20:27:58.578Z,102088.16
2023-02-04T20:33:19.712Z,102100.56
2023-02-04T20:38:22.245Z,102099.88
2023-02-04T20:43:24.617Z,102116.00
2023-02-04T20:48:32.492Z,102117.47
2023-02-04T20:53:39.050Z,102124.50
2023-02-04T20:58:45.826Z,102135.63
2023-02-04T21:03:50.895Z,102140.31
2023-02-04T21:08:54.630Z,102153.53
2023-02-04T21:13:57.075Z,102163.38
2023-02-04T21:18:58.982Z,102163.28
2023-02-04T21:24:00.837Z,102155.47
2023-02-04T21:29:02.902Z,102173.53
2023-02-04T21:34:05.975Z,102173.53
2023-02-04T21:39:08.222Z,102177.34
2023-02-04T21:44:10.046Z,102172.97
2023-02-04T21:49:11.937Z,102167.69
2023-02-04T21:54:13.837Z,102165.97
2023-02-04T21:59:18.658Z,102165.44
2023-02-04T22:04:20.344Z,102156.97
2023-02-04T22:09:22.009Z,102161.53
2023-02-04T22:14:23.665Z,102167.94
2023-02-04T22:19:25.829Z,102181.75
2023-02-04T22:24:27.672Z,102182.97
2023-02-04T22:29:31.947Z,102194.59
2023-02-04T22:34:33.715Z,102192.44
2023-02-04T22:39:35.332Z,102192.03
2023-02-04T22:44:37.030Z,102193.91
2023-02-04T22:49:39.153Z,102183.41
2023-02-04T22:54:43.254Z,102191.63
2023-02-04T22:59:45.145Z,102191.31
2023-02-04T23:04:46.994Z,102190.78
2023-02-04T23:09:49.013Z,102185.28
2023-02-04T23:14:50.837Z,102187.06
2023-02-04T23:19:52.606Z,102187.34
2023-02-04T23:24:54.295Z,102198.03
2023-02-04T23:29:56.039Z,102197.53
2023-02-04T23:34:57.734Z,102204.91
2023-02-04T23:39:59.643Z,102216.19
2023-02-04T23:45:01.310Z,102214.09
2023-02-04T23:50:04.175Z,102212.38
2023-02-04T23:55:06.318Z,102203.59
